Winamac, IN (46996)

4:52 PM EDT on July 22, 2014 (GMT -0400)
East of Town (KINNORTH11) Elev 700 ft | 41.24 °N, 86.72 °W | Change Station

Current weather conditions updated 2 minutes ago

Clear
Clear
87.8 °F
Feels Like 96 °F
N
9.0
Wind Variable Wind from WSW
Gusts 9.0 mph

Tomorrow is forecast to be Much Cooler than today.

Today
High -- | Low -- °F
--% Chance of Precip.
Yesterday
High -- | Low -- °F
Precip. -- in
6:33 AM 9:12 PM
Waning Crescent, 15% visible
Pressure 29.98 in
Visibility 10.0 miles
Clouds Clear
Heat Index 96 °F
Dew Point 73 °F
Humidity 62%
Rainfall 0.00 in
Snow Depth Not available.
UV 7 out of 12
Pollen 6.70 out of 12
Air Quality Not available.
Flu Activity Sporadic
METAR KOXI 222035Z AUTO 22009KT 10SM CLR 30/20 A2998 RMK AO1 T03010196

More Conditions Fewer Conditions

Pressure 29.98 in
Visibility 10.0 miles
Clouds Clear
Heat Index 96 °F
Dew Point 73 °F
Humidity 62%
Rainfall 0.00 in
Snow Depth Not available.
UV 7 out of 12
Pollen 6.70 out of 12
Air Quality Not available.
Flu Activity Sporadic
METAR KOXI 222035Z AUTO 22009KT 10SM CLR 30/20 A2998 RMK AO1 T03010196

More Conditions Fewer Conditions

10-Day Weather Forecast

Almanac

Astronomy

Jul. 22, 2014 Rise Set
Actual Time 6:33 AM EDT 9:12 PM EDT
Civil Twilight 6:01 AM EDT 9:44 PM EDT
Nautical Twilight 5:21 AM EDT 10:24 PM EDT
Astronomical Twilight 4:35 AM EDT 11:09 PM EDT
Moon 3:06 AM EDT 5:49 PM EDT
Length of Visible Light 15h 43m
Length of Day
14h 39m
Tomorrow will be 1m 44s shorter.
Waning Crescent, 15% of the Moon is Illuminated
Today
Waning Crescent
Jul 26
New
Aug 3
First Quarter
Aug 10
Full
Aug 17
Last Quarter

Today's Extremes

State Highs State Lows

Community

WunderPhotos

Upload Photos

1,736,350 photos uploaded!

Nearby

Snow Depth

Station Depth Elevation
No new snow has been reported.

Earthquake Activity

City Distance Mag. Time & Date
No recent earthquake activity has been reported nearby.
Minimum magnitude displayed is 2.5.

Coastal Water Temperatures

Place Temperature
No Stations Reporting

Nearby Weather Stations

Station Location Temp. Heat Index Dew Point Humidity Wind Precip. Elev Updated Type
East of Town, North Judson, IN 87.8 °F 96 °F 73 °F 62% WSW  at  9.0 mph 0.00 in / hr 700 ft 3:50 PM CDT Normal
Leroy's BarnYard, Kewanna, IN 86.4 °F 92 °F 71 °F 61% SSE  at  4.0 mph 0.00 in / hr 758 ft 4:49 PM EDT Normal
400 west, Rochester, IN 87.3 °F 93 °F 71 °F 58% South  at  5.0 mph 0.00 in / hr 745 ft 4:52 PM EDT Rapid Fire
Bluewater Drive, Monticello, IN 90.5 °F 114 °F 83 °F 79% ESE  at  4.2 mph - / hr 623 ft 4:41 PM EDT Normal
4th Street, Rochester, IN 86.3 °F 88 °F 65 °F 49% SSW  at  1.0 mph 0.00 in / hr 781 ft 4:48 PM EDT Normal

Show More Stations Show Fewer Stations